Latest Coastal Weather Observations for Cape Bruny AWS

IDT60701

Issued at 6:32 am EDT Wednesday 22 November 2017 (issued every 10 minutes, with the page automatically refreshed every 10 minutes)

About coastal observations | Map of coastal stations | Coastal observations for TAS | Marine services | Other Formats
Station Details ID: 094198 Name: CAPE BRUNY (CAPE BRUNY) Lat: -43.49 Lon: 147.14 Height: 59.7 m
Data from the previous 72 hours. | See also: Recent months at Cape Bruny AWS
Date/Time
EDT
Temp
°C
Wind Pressure Rain since
9am
mm
Weather Cloud Vis
km
Sea
Height
m
Swell
Dir  Spd
kts
Gust
kts
hPa Trend Height
m
Period
s
Dir
22/06:30am 17.1 N 16 21 1017.3 - 0.0 - - - - - - -
22/06:00am 16.5 N 17 22 1017.2 - 0.0 - - - - - - -
22/05:30am 15.9 N 18 22 1017.1 - 0.0 - - - - - - -
22/05:00am 16.5 N 16 20 1017.2 - 0.0 - - - - - - -
22/04:30am 16.8 N 16 19 1017.3 - 0.0 - - - - - - -
22/04:00am 16.6 N 16 20 1017.3 - 0.0 - - - - - - -
22/03:30am 16.7 N 15 21 1017.5 - 0.0 - - - - - - -
22/03:00am 16.5 N 14 18 1017.7 - 0.0 - - - - - - -
22/02:30am 17.1 N 15 20 1017.8 - 0.0 - - - - - - -
22/02:00am 16.9 N 11 15 1018.2 - 0.0 - - - - - - -
22/01:30am 17.0 N 13 16 1018.2 - 0.0 - - - - - - -
22/01:00am 17.1 N 14 17 1018.5 - 0.0 - - - - - - -
22/12:30am 17.1 N 15 18 1018.8 - 0.0 - - - - - - -
22/12:00am 17.5 N 13 16 1019.0 - 0.0 - - - - - - -
 
Date/Time
EDT
Temp
°C
Wind Pressure Rain since
9am
mm
Weather Cloud Vis
km
Sea
Height
m
Swell
Dir  Spd
kts
Gust
kts
hPa Trend Height
m
Period
s
Dir
21/11:30pm 17.6 N 13 16 1019.2 - 0.0 - - - - - - -
21/11:00pm 17.2 N 12 13 1019.5 - 0.0 - - - - - - -
21/10:30pm 16.9 ENE 4 7 1019.7 - 0.0 - - - - - - -
21/10:00pm 15.6 WNW 8 9 1019.8 - 0.0 - - - - - - -
21/09:30pm 15.9 NW 6 9 1019.8 - 0.0 - - - - - - -
21/09:00pm 15.7 ENE 4 5 1019.9 - 0.0 - - - - - - -
21/08:30pm 17.3 SE 1 3 1019.8 - 0.0 - - - - - - -
21/08:00pm 17.7 E 6 8 1019.7 - 0.0 - - - - - - -
21/07:30pm 18.1 ESE 7 9 1019.7 - 0.0 - - - - - - -
21/07:00pm 19.7 ESE 8 11 1019.7 - 0.0 - - - - - - -
21/06:30pm 20.6 ESE 9 13 1019.7 - 0.0 - - - - - - -
21/06:00pm 21.0 E 6 10 1019.7 - 0.0 - - - - - - -
21/05:30pm 20.8 ESE 9 12 1019.8 - 0.0 - - - - - - -
21/05:00pm 20.7 ESE 10 13 1020.0 - 0.0 - - - - - - -
21/04:30pm 20.3 ESE 9 11 1020.3 - 0.0 - - - - - - -
21/04:00pm 20.6 ESE 9 12 1020.3 - 0.0 - - - - - - -
21/03:30pm 20.4 ESE 9 11 1020.6 - 0.0 - - - - - - -
21/03:00pm 20.9 SE 10 13 1020.9 - 0.0 - - - - - - -
21/02:30pm 21.0 ESE 9 12 1021.2 - 0.0 - - - - - - -
21/02:00pm 21.6 ESE 9 12 1021.5 - 0.0 - - - - - - -
21/01:30pm 21.5 SE 10 15 1021.6 - 0.0 - - - - - - -
21/01:00pm 21.3 SE 7 11 1022.0 - 0.0 - - - - - - -
21/12:30pm 21.5 SE 8 10 1022.2 - 0.0 - - - - - - -
21/12:00pm 20.3 SSE 8 11 1022.2 - 0.0 - - - - - - -
21/11:30am 19.8 S 7 9 1022.4 - 0.0 - - - - - - -
21/11:00am 19.8 S 7 9 1022.4 - 0.0 - - - - - - -
21/10:30am 20.0 S 6 7 1022.3 - 0.0 - - - - - - -
21/10:00am 20.3 SE 4 5 1022.3 - 0.0 - - - - - - -
21/09:30am 20.6 ESE 4 6 1022.3 - 0.0 - - - - - - -
21/09:00am 19.1 NE 3 5 1022.4 - 0.0 - - - - - - -
21/08:30am 19.1 W 5 7 1022.3 - 0.0 - - - - - - -
21/08:00am 19.4 N 8 11 1022.1 - 0.0 - - - - - - -
21/07:30am 18.9 E 5 8 1022.0 - 0.0 - - - - - - -
21/07:00am 17.9 NE 5 10 1021.8 - 0.0 - - - - - - -
21/06:30am 15.7 NW 2 5 1021.6 - 0.0 - - - - - - -
21/06:00am 15.5 NNW 3 6 1021.4 - 0.0 - - - - - - -
21/05:30am 16.0 NNE 9 14 1021.0 - 0.0 - - - - - - -
21/05:00am 15.8 N 8 10 1020.9 - 0.0 - - - - - - -
21/04:30am 16.7 N 13 16 1020.6 - 0.0 - - - - - - -
21/04:00am 16.8 N 14 17 1020.6 - 0.0 - - - - - - -
21/03:30am 17.0 N 13 16 1020.6 - 0.0 - - - - - - -
21/03:00am 17.0 N 12 15 1020.5 - 0.0 - - - - - - -
21/02:30am 17.2 N 13 16 1020.5 - 0.0 - - - - - - -
21/02:00am 17.5 N 14 17 1020.9 - 0.0 - - - - - - -
21/01:30am 17.6 N 13 17 1021.1 - 0.0 - - - - - - -
21/01:00am 17.2 N 11 15 1021.5 - 0.0 - - - - - - -
21/12:30am 17.2 N 12 15 1021.8 - 0.0 - - - - - - -
21/12:00am 17.4 N 12 16 1021.9 - 0.0 - - - - - - -
 
Date/Time
EDT
Temp
°C
Wind Pressure Rain since
9am
mm
Weather Cloud Vis
km
Sea
Height
m
Swell
Dir  Spd
kts
Gust
kts
hPa Trend Height
m
Period
s
Dir
20/11:30pm 16.7 N 8 11 1022.3 - 0.0 - - - - - - -
20/11:00pm 17.9 N 11 14 1022.4 - 0.0 - - - - - - -
20/10:30pm 17.2 N 11 15 1022.6 - 0.0 - - - - - - -
20/10:00pm 17.5 N 8 10 1022.8 - 0.0 - - - - - - -
20/09:30pm 16.6 ENE 4 4 1022.9 - 0.0 - - - - - - -
20/09:00pm 18.2 N 8 11 1022.7 - 0.0 - - - - - - -
20/08:30pm 17.9 N 9 10 1022.6 - 0.0 - - - - - - -
20/08:00pm 17.1 WNW 6 6 1022.6 - 0.0 - - - - - - -
20/07:30pm 17.6 WNW 7 7 1022.5 - 0.0 - - - - - - -
20/07:00pm 18.2 WNW 7 8 1022.4 - 0.0 - - - - - - -
20/06:30pm 18.8 W 8 10 1022.3 - 0.0 - - - - - - -
20/06:00pm 19.6 W 6 8 1022.3 - 0.0 - - - - - - -
20/05:30pm 18.7 SSW 7 8 1022.5 - 0.0 - - - - - - -
20/05:00pm 19.4 SE 6 8 1022.5 - 0.0 - - - - - - -
20/04:30pm 19.8 ESE 7 9 1022.8 - 0.0 - - - - - - -
20/04:00pm 19.3 ESE 9 11 1023.0 - 0.0 - - - - - - -
20/03:30pm 19.8 SSE 6 9 1023.4 - 0.0 - - - - - - -
20/03:00pm 18.8 ESE 8 11 1023.6 - 0.0 - - - - - - -
20/02:30pm 18.9 SE 10 13 1024.0 - 0.0 - - - - - - -
20/02:00pm 17.6 SSE 8 11 1024.3 - 0.0 - - - - - - -
20/01:30pm 18.9 SE 8 12 1024.5 - 0.0 - - - - - - -
20/01:00pm 19.5 SE 8 11 1024.7 - 0.0 - - - - - - -
20/12:30pm 19.0 SE 8 11 1024.8 - 0.0 - - - - - - -
20/12:00pm 19.4 SE 8 10 1024.9 - 0.0 - - - - - - -
20/11:30am 19.8 SE 9 11 1024.9 - 0.0 - - - - - - -
20/11:00am 18.7 S 8 10 1025.1 - 0.0 - - - - - - -
20/10:30am 18.7 S 8 10 1025.1 - 0.0 - - - - - - -
20/10:00am 19.1 E 7 8 1025.0 - 0.0 - - - - - - -
20/09:30am 18.6 ESE 5 7 1025.0 - 0.0 - - - - - - -
20/09:00am 18.3 SSE 4 6 1025.0 - 0.0 - - - - - - -
20/08:30am 17.7 E 3 5 1025.1 - 0.0 - - - - - - -
20/08:00am 17.6 E 3 5 1025.0 - 0.0 - - - - - - -
20/07:30am 16.6 CALM 0 0 1024.9 - 0.0 - - - - - - -
20/07:00am 16.0 W 2 4 1024.8 - 0.0 - - - - - - -
20/06:30am 15.2 WNW 3 4 1024.5 - 0.0 - - - - - - -
20/06:00am 14.5 NW 5 8 1024.3 - 0.0 - - - - - - -
20/05:30am 14.5 E 1 4 1024.0 - 0.0 - - - - - - -
20/05:00am 14.6 NW 1 4 1023.8 - 0.0 - - - - - - -
20/04:30am 14.8 W 4 6 1023.6 - 0.0 - - - - - - -
20/04:00am 15.1 W 3 7 1023.5 - 0.0 - - - - - - -
20/03:30am 15.6 W 4 5 1023.4 - 0.0 - - - - - - -
20/03:00am 15.9 N 10 11 1023.5 - 0.0 - - - - - - -
20/02:30am 15.8 NNE 7 12 1023.4 - 0.0 - - - - - - -
20/02:00am 15.8 N 13 15 1023.2 - 0.0 - - - - - - -
20/01:30am 15.8 N 13 15 1023.1 - 0.0 - - - - - - -
20/01:00am 15.6 NNE 7 13 1023.3 - 0.0 - - - - - - -
20/12:30am 16.0 N 8 11 1023.6 - 0.0 - - - - - - -
20/12:00am 15.8 W 1 5 1023.6 - 0.0 - - - - - - -
 
Date/Time
EDT
Temp
°C
Wind Pressure Rain since
9am
mm
Weather Cloud Vis
km
Sea
Height
m
Swell
Dir  Spd
kts
Gust
kts
hPa Trend Height
m
Period
s
Dir
19/11:30pm 15.9 NW 4 6 1023.7 - 0.0 - - - - - - -
19/11:00pm 15.8 N 7 8 1023.8 - 0.0 - - - - - - -
19/10:30pm 15.3 NNE 6 7 1024.0 - 0.0 - - - - - - -
19/10:00pm 15.4 SW 1 5 1024.0 - 0.0 - - - - - - -
19/09:30pm 15.2 CALM 0 0 1023.9 - 0.0 - - - - - - -
19/09:00pm 15.1 CALM 0 0 1023.5 - 0.0 - - - - - - -
19/08:30pm 15.6 SW 4 5 1023.3 - 0.0 - - - - - - -
19/08:00pm 16.6 SW 3 4 1023.2 - 0.0 - - - - - - -
19/07:30pm 17.6 SW 1 3 1023.0 - 0.0 - - - - - - -
19/07:00pm 17.9 SSW 4 5 1022.8 - 0.0 - - - - - - -
19/06:30pm 17.8 S 6 8 1022.6 - 0.0 - - - - - - -
19/06:00pm 18.3 S 6 8 1022.5 - 0.0 - - - - - - -
19/05:30pm 18.6 S 7 9 1022.8 - 0.0 - - - - - - -
19/05:00pm 19.0 S 8 10 1022.7 - 0.0 - - - - - - -
19/04:30pm 19.2 S 9 11 1022.7 - 0.0 - - - - - - -
19/04:00pm 19.1 S 8 10 1022.9 - 0.0 - - - - - - -
19/03:30pm 20.3 SSE 6 9 1022.9 - 0.0 - - - - - - -
19/03:00pm 20.0 SSE 7 10 1023.2 - 0.0 - - - - - - -
19/02:30pm 20.1 S 8 10 1023.4 - 0.0 - - - - - - -
19/02:00pm 20.1 S 6 7 1023.6 - 0.0 - - - - - - -
19/01:30pm 20.8 S 6 8 1023.7 - 0.0 - - - - - - -
19/01:00pm 21.9 SSE 7 10 1023.7 - 0.0 - - - - - - -
19/12:30pm 21.3 SE 7 9 1023.9 - 0.0 - - - - - - -
19/12:00pm 21.0 ESE 8 10 1023.9 - 0.0 - - - - - - -
19/11:30am 20.0 ESE 8 11 1024.0 - 0.0 - - - - - - -
19/11:00am 20.6 S 8 9 1023.9 - 0.0 - - - - - - -
19/10:30am 21.9 W 3 5 1023.6 - 0.0 - - - - - - -
19/10:00am 21.8 N 3 5 1023.5 - 0.0 - - - - - - -
19/09:30am 21.6 N 4 8 1023.3 - 0.0 - - - - - - -
19/09:00am 20.8 ENE 5 7 1023.2 - 0.0 - - - - - - -
19/08:30am 19.0 NW 4 6 1023.1 - 0.0 - - - - - - -
19/08:00am 18.4 WSW 4 6 1022.8 - 0.0 - - - - - - -
19/07:30am 19.2 NNE 8 11 1022.5 - 0.0 - - - - - - -
19/07:00am 18.0 NE 7 11 1022.2 - 0.0 - - - - - - -

Other Formats:

Comma delimited format used in spreadsheet applications
http://www.bom.gov.au/fwo/IDT60701/IDT60701.95967.axf

JavaScript Object Notation format (JSON) in row-major order
http://www.bom.gov.au/fwo/IDT60701/IDT60701.95967.json